sensor_id;sensor_type;location;lat;lon;timestamp;P1;durP1;ratioP1;P2;durP2;ratioP2
57281;SDS011;43129;52.628;10.098;2023-05-07T00:01:38;19.20;;;13.25;;
57281;SDS011;43129;52.628;10.098;2023-05-07T00:04:06;27.83;;;15.35;;
57281;SDS011;43129;52.628;10.098;2023-05-07T00:06:32;20.55;;;12.73;;
57281;SDS011;43129;52.628;10.098;2023-05-07T00:08:58;21.83;;;12.57;;
57281;SDS011;43129;52.628;10.098;2023-05-07T00:11:25;23.30;;;12.60;;
57281;SDS011;43129;52.628;10.098;2023-05-07T00:13:52;24.17;;;14.27;;
57281;SDS011;43129;52.628;10.098;2023-05-07T00:16:20;21.92;;;13.65;;
57281;SDS011;43129;52.628;10.098;2023-05-07T00:18:45;22.23;;;13.95;;
57281;SDS011;43129;52.628;10.098;2023-05-07T00:21:11;20.27;;;12.15;;
57281;SDS011;43129;52.628;10.098;2023-05-07T00:23:41;18.27;;;12.20;;
57281;SDS011;43129;52.628;10.098;2023-05-07T00:26:07;19.30;;;12.38;;
57281;SDS011;43129;52.628;10.098;2023-05-07T00:28:33;18.48;;;12.88;;
57281;SDS011;43129;52.628;10.098;2023-05-07T00:30:58;20.45;;;12.95;;
57281;SDS011;43129;52.628;10.098;2023-05-07T00:33:24;21.83;;;13.32;;
57281;SDS011;43129;52.628;10.098;2023-05-07T00:35:51;21.58;;;13.05;;
57281;SDS011;43129;52.628;10.098;2023-05-07T00:38:19;20.30;;;12.80;;
57281;SDS011;43129;52.628;10.098;2023-05-07T00:40:45;22.15;;;11.80;;
57281;SDS011;43129;52.628;10.098;2023-05-07T00:43:10;19.33;;;12.60;;
57281;SDS011;43129;52.628;10.098;2023-05-07T00:45:39;19.23;;;13.00;;
57281;SDS011;43129;52.628;10.098;2023-05-07T00:48:04;24.73;;;15.13;;
57281;SDS011;43129;52.628;10.098;2023-05-07T00:50:35;20.50;;;13.38;;
57281;SDS011;43129;52.628;10.098;2023-05-07T00:53:01;24.95;;;15.52;;
57281;SDS011;43129;52.628;10.098;2023-05-07T00:55:27;26.60;;;14.70;;
57281;SDS011;43129;52.628;10.098;2023-05-07T00:57:54;24.88;;;15.80;;
57281;SDS011;43129;52.628;10.098;2023-05-07T01:00:22;24.35;;;15.15;;
57281;SDS011;43129;52.628;10.098;2023-05-07T01:02:49;23.30;;;15.00;;
57281;SDS011;43129;52.628;10.098;2023-05-07T01:05:15;25.08;;;14.98;;
57281;SDS011;43129;52.628;10.098;2023-05-07T01:07:43;21.45;;;14.65;;
57281;SDS011;43129;52.628;10.098;2023-05-07T01:10:10;21.80;;;15.02;;
57281;SDS011;43129;52.628;10.098;2023-05-07T01:12:39;25.85;;;15.45;;
57281;SDS011;43129;52.628;10.098;2023-05-07T01:15:09;20.80;;;14.27;;
57281;SDS011;43129;52.628;10.098;2023-05-07T01:17:35;23.65;;;15.32;;
57281;SDS011;43129;52.628;10.098;2023-05-07T01:20:02;22.17;;;14.15;;
57281;SDS011;43129;52.628;10.098;2023-05-07T01:22:34;24.83;;;14.52;;
57281;SDS011;43129;52.628;10.098;2023-05-07T01:25:06;21.00;;;14.23;;
57281;SDS011;43129;52.628;10.098;2023-05-07T01:27:33;20.83;;;13.73;;
57281;SDS011;43129;52.628;10.098;2023-05-07T01:30:00;18.75;;;13.13;;
57281;SDS011;43129;52.628;10.098;2023-05-07T01:32:36;19.10;;;12.50;;
57281;SDS011;43129;52.628;10.098;2023-05-07T01:35:05;19.33;;;12.15;;
57281;SDS011;43129;52.628;10.098;2023-05-07T01:37:35;19.77;;;12.50;;
57281;SDS011;43129;52.628;10.098;2023-05-07T01:40:02;17.42;;;12.05;;
57281;SDS011;43129;52.628;10.098;2023-05-07T01:42:29;16.25;;;11.65;;
57281;SDS011;43129;52.628;10.098;2023-05-07T01:44:56;18.83;;;12.55;;
57281;SDS011;43129;52.628;10.098;2023-05-07T01:47:22;18.48;;;12.45;;
57281;SDS011;43129;52.628;10.098;2023-05-07T01:49:49;17.48;;;12.32;;
57281;SDS011;43129;52.628;10.098;2023-05-07T01:52:17;17.05;;;11.57;;
57281;SDS011;43129;52.628;10.098;2023-05-07T01:54:43;16.10;;;11.75;;
57281;SDS011;43129;52.628;10.098;2023-05-07T01:57:09;16.10;;;11.23;;
57281;SDS011;43129;52.628;10.098;2023-05-07T01:59:35;15.40;;;11.63;;
57281;SDS011;43129;52.628;10.098;2023-05-07T02:02:00;15.82;;;11.50;;
57281;SDS011;43129;52.628;10.098;2023-05-07T02:04:28;14.90;;;10.30;;
57281;SDS011;43129;52.628;10.098;2023-05-07T02:06:54;15.40;;;10.68;;
57281;SDS011;43129;52.628;10.098;2023-05-07T02:09:20;17.35;;;10.45;;
57281;SDS011;43129;52.628;10.098;2023-05-07T02:11:48;14.13;;;10.75;;
57281;SDS011;43129;52.628;10.098;2023-05-07T02:14:14;13.98;;;10.05;;
57281;SDS011;43129;52.628;10.098;2023-05-07T02:16:40;16.35;;;10.35;;
57281;SDS011;43129;52.628;10.098;2023-05-07T02:19:06;15.50;;;10.00;;
57281;SDS011;43129;52.628;10.098;2023-05-07T02:21:34;15.00;;;10.45;;
57281;SDS011;43129;52.628;10.098;2023-05-07T02:23:59;13.80;;;11.20;;
57281;SDS011;43129;52.628;10.098;2023-05-07T02:26:25;15.85;;;10.80;;
57281;SDS011;43129;52.628;10.098;2023-05-07T02:28:51;16.33;;;10.95;;
57281;SDS011;43129;52.628;10.098;2023-05-07T02:31:17;14.60;;;10.35;;
57281;SDS011;43129;52.628;10.098;2023-05-07T02:33:42;18.77;;;11.38;;
57281;SDS011;43129;52.628;10.098;2023-05-07T02:36:08;15.52;;;9.93;;
57281;SDS011;43129;52.628;10.098;2023-05-07T02:38:35;17.45;;;10.85;;
57281;SDS011;43129;52.628;10.098;2023-05-07T02:41:01;15.35;;;10.88;;
57281;SDS011;43129;52.628;10.098;2023-05-07T02:43:26;16.95;;;11.18;;
57281;SDS011;43129;52.628;10.098;2023-05-07T02:46:04;17.48;;;11.52;;
57281;SDS011;43129;52.628;10.098;2023-05-07T02:48:31;17.48;;;10.90;;
57281;SDS011;43129;52.628;10.098;2023-05-07T02:50:59;18.33;;;11.00;;
57281;SDS011;43129;52.628;10.098;2023-05-07T02:53:25;16.70;;;11.15;;
57281;SDS011;43129;52.628;10.098;2023-05-07T02:55:58;14.65;;;10.15;;
57281;SDS011;43129;52.628;10.098;2023-05-07T02:58:25;15.77;;;10.80;;
57281;SDS011;43129;52.628;10.098;2023-05-07T03:00:53;15.32;;;10.63;;
57281;SDS011;43129;52.628;10.098;2023-05-07T03:03:24;14.82;;;10.80;;
57281;SDS011;43129;52.628;10.098;2023-05-07T03:05:50;13.77;;;9.77;;
57281;SDS011;43129;52.628;10.098;2023-05-07T03:08:15;12.70;;;9.52;;
57281;SDS011;43129;52.628;10.098;2023-05-07T03:10:42;14.73;;;11.02;;
57281;SDS011;43129;52.628;10.098;2023-05-07T03:13:10;14.60;;;9.32;;
57281;SDS011;43129;52.628;10.098;2023-05-07T03:15:35;14.00;;;9.30;;
57281;SDS011;43129;52.628;10.098;2023-05-07T03:18:01;12.60;;;9.40;;
57281;SDS011;43129;52.628;10.098;2023-05-07T03:20:27;13.63;;;9.43;;
57281;SDS011;43129;52.628;10.098;2023-05-07T03:22:55;11.70;;;8.48;;
57281;SDS011;43129;52.628;10.098;2023-05-07T03:25:20;13.15;;;9.38;;
57281;SDS011;43129;52.628;10.098;2023-05-07T03:27:49;12.68;;;9.75;;
57281;SDS011;43129;52.628;10.098;2023-05-07T03:30:14;12.50;;;9.73;;
57281;SDS011;43129;52.628;10.098;2023-05-07T03:32:40;12.73;;;9.48;;
57281;SDS011;43129;52.628;10.098;2023-05-07T03:35:08;11.25;;;9.02;;
57281;SDS011;43129;52.628;10.098;2023-05-07T03:37:34;14.48;;;9.32;;
57281;SDS011;43129;52.628;10.098;2023-05-07T03:40:00;11.55;;;9.30;;
57281;SDS011;43129;52.628;10.098;2023-05-07T03:42:27;13.57;;;9.82;;
57281;SDS011;43129;52.628;10.098;2023-05-07T03:44:54;12.88;;;9.93;;
57281;SDS011;43129;52.628;10.098;2023-05-07T03:47:19;12.25;;;9.60;;
57281;SDS011;43129;52.628;10.098;2023-05-07T03:49:47;11.38;;;9.52;;
57281;SDS011;43129;52.628;10.098;2023-05-07T03:52:16;13.77;;;9.95;;
57281;SDS011;43129;52.628;10.098;2023-05-07T03:54:50;14.13;;;9.55;;
57281;SDS011;43129;52.628;10.098;2023-05-07T03:57:17;15.48;;;9.80;;
57281;SDS011;43129;52.628;10.098;2023-05-07T03:59:42;12.30;;;9.88;;
57281;SDS011;43129;52.628;10.098;2023-05-07T04:02:08;11.32;;;9.23;;
57281;SDS011;43129;52.628;10.098;2023-05-07T04:04:36;11.55;;;9.10;;
57281;SDS011;43129;52.628;10.098;2023-05-07T04:07:01;11.63;;;9.68;;
57281;SDS011;43129;52.628;10.098;2023-05-07T04:09:29;13.95;;;10.30;;
57281;SDS011;43129;52.628;10.098;2023-05-07T04:12:00;14.65;;;10.80;;
57281;SDS011;43129;52.628;10.098;2023-05-07T04:14:28;14.68;;;10.70;;
57281;SDS011;43129;52.628;10.098;2023-05-07T04:16:57;17.70;;;11.77;;
57281;SDS011;43129;52.628;10.098;2023-05-07T04:19:24;14.70;;;10.90;;
57281;SDS011;43129;52.628;10.098;2023-05-07T04:21:52;15.32;;;11.45;;
57281;SDS011;43129;52.628;10.098;2023-05-07T04:24:23;15.02;;;11.93;;
57281;SDS011;43129;52.628;10.098;2023-05-07T04:26:48;16.85;;;11.75;;
57281;SDS011;43129;52.628;10.098;2023-05-07T04:29:17;15.13;;;11.15;;
57281;SDS011;43129;52.628;10.098;2023-05-07T04:31:48;16.38;;;12.50;;
57281;SDS011;43129;52.628;10.098;2023-05-07T04:34:16;16.92;;;12.55;;
57281;SDS011;43129;52.628;10.098;2023-05-07T04:36:41;16.45;;;11.85;;
57281;SDS011;43129;52.628;10.098;2023-05-07T04:39:09;16.35;;;12.85;;
57281;SDS011;43129;52.628;10.098;2023-05-07T04:41:36;18.08;;;12.77;;
57281;SDS011;43129;52.628;10.098;2023-05-07T04:44:04;16.30;;;11.70;;
57281;SDS011;43129;52.628;10.098;2023-05-07T04:46:30;19.40;;;13.13;;
57281;SDS011;43129;52.628;10.098;2023-05-07T04:48:56;16.38;;;13.13;;
57281;SDS011;43129;52.628;10.098;2023-05-07T04:51:22;16.48;;;12.90;;
57281;SDS011;43129;52.628;10.098;2023-05-07T04:53:48;17.40;;;13.35;;
57281;SDS011;43129;52.628;10.098;2023-05-07T04:56:16;16.52;;;12.57;;
57281;SDS011;43129;52.628;10.098;2023-05-07T04:58:45;14.82;;;11.88;;
57281;SDS011;43129;52.628;10.098;2023-05-07T05:01:15;16.05;;;12.13;;
57281;SDS011;43129;52.628;10.098;2023-05-07T05:03:41;14.65;;;12.20;;
57281;SDS011;43129;52.628;10.098;2023-05-07T05:06:06;15.52;;;11.80;;
57281;SDS011;43129;52.628;10.098;2023-05-07T05:08:34;15.73;;;11.65;;
57281;SDS011;43129;52.628;10.098;2023-05-07T05:11:05;14.13;;;11.10;;
57281;SDS011;43129;52.628;10.098;2023-05-07T05:13:30;14.50;;;10.95;;
57281;SDS011;43129;52.628;10.098;2023-05-07T05:15:58;12.95;;;10.68;;
57281;SDS011;43129;52.628;10.098;2023-05-07T05:18:24;15.93;;;11.02;;
57281;SDS011;43129;52.628;10.098;2023-05-07T05:20:52;15.23;;;10.75;;
57281;SDS011;43129;52.628;10.098;2023-05-07T05:23:17;12.93;;;9.85;;
57281;SDS011;43129;52.628;10.098;2023-05-07T05:25:43;12.57;;;9.82;;
57281;SDS011;43129;52.628;10.098;2023-05-07T05:28:11;13.13;;;10.05;;
57281;SDS011;43129;52.628;10.098;2023-05-07T05:30:38;13.00;;;9.85;;
57281;SDS011;43129;52.628;10.098;2023-05-07T05:33:04;12.10;;;9.65;;
57281;SDS011;43129;52.628;10.098;2023-05-07T05:35:30;13.35;;;9.43;;
57281;SDS011;43129;52.628;10.098;2023-05-07T05:37:56;12.02;;;9.60;;
57281;SDS011;43129;52.628;10.098;2023-05-07T05:40:24;11.60;;;9.55;;
57281;SDS011;43129;52.628;10.098;2023-05-07T05:42:50;13.13;;;10.18;;
57281;SDS011;43129;52.628;10.098;2023-05-07T05:45:18;11.57;;;9.98;;
57281;SDS011;43129;52.628;10.098;2023-05-07T05:47:46;12.00;;;9.52;;
57281;SDS011;43129;52.628;10.098;2023-05-07T05:50:11;12.57;;;9.98;;
57281;SDS011;43129;52.628;10.098;2023-05-07T05:52:37;11.57;;;9.73;;
57281;SDS011;43129;52.628;10.098;2023-05-07T05:55:03;11.50;;;9.52;;
57281;SDS011;43129;52.628;10.098;2023-05-07T05:57:29;12.25;;;10.15;;
57281;SDS011;43129;52.628;10.098;2023-05-07T05:59:55;11.55;;;9.63;;
57281;SDS011;43129;52.628;10.098;2023-05-07T06:02:21;12.10;;;9.88;;
57281;SDS011;43129;52.628;10.098;2023-05-07T06:04:47;12.32;;;10.05;;
57281;SDS011;43129;52.628;10.098;2023-05-07T06:07:17;12.23;;;9.90;;
57281;SDS011;43129;52.628;10.098;2023-05-07T06:09:47;12.32;;;10.48;;
57281;SDS011;43129;52.628;10.098;2023-05-07T06:12:15;12.60;;;10.32;;
57281;SDS011;43129;52.628;10.098;2023-05-07T06:14:43;12.30;;;10.65;;
57281;SDS011;43129;52.628;10.098;2023-05-07T06:17:09;12.25;;;10.38;;
57281;SDS011;43129;52.628;10.098;2023-05-07T06:19:34;14.95;;;10.05;;
57281;SDS011;43129;52.628;10.098;2023-05-07T06:22:02;12.52;;;10.32;;
57281;SDS011;43129;52.628;10.098;2023-05-07T06:24:28;11.75;;;9.98;;
57281;SDS011;43129;52.628;10.098;2023-05-07T06:26:54;13.02;;;10.45;;
57281;SDS011;43129;52.628;10.098;2023-05-07T06:29:23;12.10;;;9.60;;
57281;SDS011;43129;52.628;10.098;2023-05-07T06:31:55;13.15;;;10.63;;
57281;SDS011;43129;52.628;10.098;2023-05-07T06:34:20;14.48;;;11.77;;
57281;SDS011;43129;52.628;10.098;2023-05-07T06:36:48;13.82;;;11.38;;
57281;SDS011;43129;52.628;10.098;2023-05-07T06:39:16;14.15;;;10.70;;
57281;SDS011;43129;52.628;10.098;2023-05-07T06:41:42;14.45;;;10.48;;
57281;SDS011;43129;52.628;10.098;2023-05-07T06:44:10;13.77;;;11.55;;
57281;SDS011;43129;52.628;10.098;2023-05-07T06:46:35;15.23;;;11.60;;
57281;SDS011;43129;52.628;10.098;2023-05-07T06:49:01;15.38;;;11.52;;
57281;SDS011;43129;52.628;10.098;2023-05-07T06:51:31;14.45;;;10.60;;
57281;SDS011;43129;52.628;10.098;2023-05-07T06:54:02;15.00;;;12.10;;
57281;SDS011;43129;52.628;10.098;2023-05-07T06:56:29;14.57;;;11.27;;
57281;SDS011;43129;52.628;10.098;2023-05-07T06:58:57;14.55;;;10.98;;
57281;SDS011;43129;52.628;10.098;2023-05-07T07:01:24;13.52;;;11.30;;
57281;SDS011;43129;52.628;10.098;2023-05-07T07:03:50;16.00;;;10.93;;
57281;SDS011;43129;52.628;10.098;2023-05-07T07:06:16;17.38;;;12.85;;
57281;SDS011;43129;52.628;10.098;2023-05-07T07:08:42;15.07;;;11.55;;
57281;SDS011;43129;52.628;10.098;2023-05-07T07:11:12;17.33;;;12.90;;
57281;SDS011;43129;52.628;10.098;2023-05-07T07:13:40;15.93;;;11.82;;
57281;SDS011;43129;52.628;10.098;2023-05-07T07:16:08;22.17;;;14.88;;
57281;SDS011;43129;52.628;10.098;2023-05-07T07:18:34;14.85;;;11.32;;
57281;SDS011;43129;52.628;10.098;2023-05-07T07:21:00;16.48;;;11.60;;
57281;SDS011;43129;52.628;10.098;2023-05-07T07:23:28;15.35;;;12.10;;
57281;SDS011;43129;52.628;10.098;2023-05-07T07:25:54;14.02;;;10.68;;
57281;SDS011;43129;52.628;10.098;2023-05-07T07:28:20;16.05;;;11.30;;
57281;SDS011;43129;52.628;10.098;2023-05-07T07:30:47;17.08;;;11.73;;
57281;SDS011;43129;52.628;10.098;2023-05-07T07:33:14;17.30;;;12.70;;
57281;SDS011;43129;52.628;10.098;2023-05-07T07:35:40;17.02;;;12.40;;
57281;SDS011;43129;52.628;10.098;2023-05-07T07:38:07;14.70;;;11.32;;
57281;SDS011;43129;52.628;10.098;2023-05-07T07:40:36;17.77;;;11.88;;
57281;SDS011;43129;52.628;10.098;2023-05-07T07:43:04;17.95;;;13.32;;
57281;SDS011;43129;52.628;10.098;2023-05-07T07:45:33;16.40;;;11.98;;
57281;SDS011;43129;52.628;10.098;2023-05-07T07:47:59;15.50;;;12.05;;
57281;SDS011;43129;52.628;10.098;2023-05-07T07:50:25;15.95;;;12.40;;
57281;SDS011;43129;52.628;10.098;2023-05-07T07:52:51;16.10;;;11.88;;
57281;SDS011;43129;52.628;10.098;2023-05-07T07:55:19;14.98;;;11.05;;
57281;SDS011;43129;52.628;10.098;2023-05-07T07:57:47;16.92;;;11.82;;
57281;SDS011;43129;52.628;10.098;2023-05-07T08:00:17;17.83;;;12.52;;
57281;SDS011;43129;52.628;10.098;2023-05-07T08:02:45;18.88;;;13.10;;
57281;SDS011;43129;52.628;10.098;2023-05-07T08:05:13;17.52;;;11.70;;
57281;SDS011;43129;52.628;10.098;2023-05-07T08:07:40;17.38;;;13.27;;
57281;SDS011;43129;52.628;10.098;2023-05-07T08:10:08;19.30;;;14.02;;
57281;SDS011;43129;52.628;10.098;2023-05-07T08:12:34;16.83;;;12.45;;
57281;SDS011;43129;52.628;10.098;2023-05-07T08:15:00;17.90;;;13.20;;
57281;SDS011;43129;52.628;10.098;2023-05-07T08:17:25;16.55;;;12.85;;
57281;SDS011;43129;52.628;10.098;2023-05-07T08:19:51;16.75;;;12.63;;
57281;SDS011;43129;52.628;10.098;2023-05-07T08:22:21;20.27;;;12.07;;
57281;SDS011;43129;52.628;10.098;2023-05-07T08:24:47;17.88;;;11.93;;
57281;SDS011;43129;52.628;10.098;2023-05-07T08:27:13;17.25;;;12.77;;
57281;SDS011;43129;52.628;10.098;2023-05-07T08:29:41;15.25;;;11.98;;
57281;SDS011;43129;52.628;10.098;2023-05-07T08:32:07;13.38;;;11.65;;
57281;SDS011;43129;52.628;10.098;2023-05-07T08:34:32;15.63;;;11.63;;
57281;SDS011;43129;52.628;10.098;2023-05-07T08:37:00;12.82;;;11.00;;
57281;SDS011;43129;52.628;10.098;2023-05-07T08:39:29;14.52;;;11.00;;
57281;SDS011;43129;52.628;10.098;2023-05-07T08:41:57;13.18;;;9.93;;
57281;SDS011;43129;52.628;10.098;2023-05-07T08:47:00;12.38;;;8.85;;
57281;SDS011;43129;52.628;10.098;2023-05-07T08:49:27;10.30;;;8.38;;
57281;SDS011;43129;52.628;10.098;2023-05-07T08:51:53;11.38;;;8.50;;
57281;SDS011;43129;52.628;10.098;2023-05-07T08:54:22;10.10;;;7.40;;
57281;SDS011;43129;52.628;10.098;2023-05-07T08:56:49;11.02;;;8.35;;
57281;SDS011;43129;52.628;10.098;2023-05-07T08:59:17;10.68;;;8.18;;
57281;SDS011;43129;52.628;10.098;2023-05-07T09:01:43;11.32;;;8.35;;
57281;SDS011;43129;52.628;10.098;2023-05-07T09:04:08;12.57;;;9.00;;
57281;SDS011;43129;52.628;10.098;2023-05-07T09:06:43;10.27;;;8.15;;
57281;SDS011;43129;52.628;10.098;2023-05-07T09:09:14;10.10;;;8.02;;
57281;SDS011;43129;52.628;10.098;2023-05-07T09:11:42;10.52;;;8.50;;
57281;SDS011;43129;52.628;10.098;2023-05-07T09:14:10;10.90;;;9.13;;
57281;SDS011;43129;52.628;10.098;2023-05-07T09:16:38;11.13;;;9.10;;
57281;SDS011;43129;52.628;10.098;2023-05-07T09:19:09;11.70;;;8.40;;
57281;SDS011;43129;52.628;10.098;2023-05-07T09:21:39;10.43;;;8.20;;
57281;SDS011;43129;52.628;10.098;2023-05-07T09:24:10;9.20;;;7.30;;
57281;SDS011;43129;52.628;10.098;2023-05-07T09:26:37;8.90;;;7.57;;
57281;SDS011;43129;52.628;10.098;2023-05-07T09:29:03;8.57;;;7.10;;
57281;SDS011;43129;52.628;10.098;2023-05-07T09:31:29;12.40;;;7.88;;
57281;SDS011;43129;52.628;10.098;2023-05-07T09:33:54;10.10;;;8.55;;
57281;SDS011;43129;52.628;10.098;2023-05-07T09:36:21;10.27;;;7.28;;
57281;SDS011;43129;52.628;10.098;2023-05-07T09:38:49;9.52;;;8.25;;
57281;SDS011;43129;52.628;10.098;2023-05-07T09:41:15;11.40;;;9.27;;
57281;SDS011;43129;52.628;10.098;2023-05-07T09:43:43;16.73;;;9.93;;
57281;SDS011;43129;52.628;10.098;2023-05-07T09:46:13;10.80;;;9.70;;
57281;SDS011;43129;52.628;10.098;2023-05-07T09:48:43;10.60;;;8.40;;
57281;SDS011;43129;52.628;10.098;2023-05-07T09:53:43;8.87;;;7.40;;
57281;SDS011;43129;52.628;10.098;2023-05-07T09:56:11;8.95;;;7.03;;
57281;SDS011;43129;52.628;10.098;2023-05-07T09:58:41;7.82;;;6.85;;
57281;SDS011;43129;52.628;10.098;2023-05-07T10:01:07;7.57;;;6.72;;
57281;SDS011;43129;52.628;10.098;2023-05-07T10:03:33;9.23;;;6.63;;
57281;SDS011;43129;52.628;10.098;2023-05-07T10:06:01;8.23;;;7.18;;
57281;SDS011;43129;52.628;10.098;2023-05-07T10:08:28;7.05;;;6.35;;
57281;SDS011;43129;52.628;10.098;2023-05-07T10:10:55;9.55;;;7.10;;
57281;SDS011;43129;52.628;10.098;2023-05-07T10:13:21;7.55;;;6.47;;
57281;SDS011;43129;52.628;10.098;2023-05-07T10:15:49;9.32;;;6.90;;
57281;SDS011;43129;52.628;10.098;2023-05-07T10:18:18;9.23;;;6.55;;
57281;SDS011;43129;52.628;10.098;2023-05-07T10:20:48;8.35;;;5.97;;
57281;SDS011;43129;52.628;10.098;2023-05-07T10:23:18;10.00;;;6.22;;
57281;SDS011;43129;52.628;10.098;2023-05-07T10:25:51;12.05;;;6.70;;
57281;SDS011;43129;52.628;10.098;2023-05-07T10:28:19;7.50;;;6.53;;
57281;SDS011;43129;52.628;10.098;2023-05-07T10:30:55;7.20;;;6.07;;
57281;SDS011;43129;52.628;10.098;2023-05-07T10:33:26;9.55;;;7.57;;
57281;SDS011;43129;52.628;10.098;2023-05-07T10:35:57;9.13;;;7.72;;
57281;SDS011;43129;52.628;10.098;2023-05-07T10:38:29;8.18;;;6.65;;
57281;SDS011;43129;52.628;10.098;2023-05-07T10:40:55;10.13;;;6.07;;
57281;SDS011;43129;52.628;10.098;2023-05-07T10:43:21;10.13;;;6.90;;
57281;SDS011;43129;52.628;10.098;2023-05-07T10:51:27;9.98;;;6.47;;
57281;SDS011;43129;52.628;10.098;2023-05-07T10:56:40;10.00;;;7.30;;
57281;SDS011;43129;52.628;10.098;2023-05-07T11:01:49;10.95;;;8.27;;
57281;SDS011;43129;52.628;10.098;2023-05-07T11:04:19;11.15;;;7.40;;
57281;SDS011;43129;52.628;10.098;2023-05-07T11:13:03;8.00;;;7.10;;
57281;SDS011;43129;52.628;10.098;2023-05-07T11:15:11;8.30;;;6.88;;
57281;SDS011;43129;52.628;10.098;2023-05-07T11:17:58;9.38;;;7.15;;
57281;SDS011;43129;52.628;10.098;2023-05-07T11:26:00;9.90;;;8.00;;
57281;SDS011;43129;52.628;10.098;2023-05-07T11:28:29;8.65;;;7.20;;
57281;SDS011;43129;52.628;10.098;2023-05-07T11:31:05;10.70;;;8.98;;
57281;SDS011;43129;52.628;10.098;2023-05-07T11:33:34;12.02;;;9.15;;
57281;SDS011;43129;52.628;10.098;2023-05-07T11:36:03;9.88;;;8.10;;
57281;SDS011;43129;52.628;10.098;2023-05-07T11:38:34;9.98;;;7.88;;
57281;SDS011;43129;52.628;10.098;2023-05-07T11:41:00;9.40;;;8.02;;
57281;SDS011;43129;52.628;10.098;2023-05-07T11:43:26;13.00;;;7.90;;
57281;SDS011;43129;52.628;10.098;2023-05-07T11:45:55;9.23;;;7.47;;
57281;SDS011;43129;52.628;10.098;2023-05-07T11:48:36;8.18;;;7.38;;
57281;SDS011;43129;52.628;10.098;2023-05-07T11:51:04;9.68;;;8.15;;
57281;SDS011;43129;52.628;10.098;2023-05-07T11:53:40;8.77;;;7.60;;
57281;SDS011;43129;52.628;10.098;2023-05-07T11:56:14;9.30;;;8.02;;
57281;SDS011;43129;52.628;10.098;2023-05-07T11:58:43;9.15;;;7.88;;
57281;SDS011;43129;52.628;10.098;2023-05-07T12:01:10;9.63;;;7.85;;
57281;SDS011;43129;52.628;10.098;2023-05-07T12:03:44;11.90;;;8.73;;
57281;SDS011;43129;52.628;10.098;2023-05-07T12:06:11;8.55;;;7.30;;
57281;SDS011;43129;52.628;10.098;2023-05-07T12:08:38;9.55;;;8.20;;
57281;SDS011;43129;52.628;10.098;2023-05-07T12:11:26;8.35;;;7.43;;
57281;SDS011;43129;52.628;10.098;2023-05-07T12:13:53;9.20;;;8.05;;
57281;SDS011;43129;52.628;10.098;2023-05-07T12:16:21;8.52;;;7.07;;
57281;SDS011;43129;52.628;10.098;2023-05-07T12:18:51;11.20;;;7.68;;
57281;SDS011;43129;52.628;10.098;2023-05-07T12:21:23;9.05;;;7.88;;
57281;SDS011;43129;52.628;10.098;2023-05-07T12:23:53;16.60;;;12.45;;
57281;SDS011;43129;52.628;10.098;2023-05-07T12:26:19;11.23;;;8.32;;
57281;SDS011;43129;52.628;10.098;2023-05-07T12:28:46;9.05;;;7.97;;
57281;SDS011;43129;52.628;10.098;2023-05-07T12:31:14;8.88;;;7.65;;
57281;SDS011;43129;52.628;10.098;2023-05-07T12:33:40;11.32;;;9.00;;
57281;SDS011;43129;52.628;10.098;2023-05-07T12:36:07;9.50;;;8.13;;
57281;SDS011;43129;52.628;10.098;2023-05-07T12:38:37;10.40;;;8.43;;
57281;SDS011;43129;52.628;10.098;2023-05-07T12:41:06;8.75;;;7.82;;
57281;SDS011;43129;52.628;10.098;2023-05-07T12:43:33;9.32;;;7.82;;
57281;SDS011;43129;52.628;10.098;2023-05-07T12:46:05;8.77;;;7.72;;
57281;SDS011;43129;52.628;10.098;2023-05-07T12:48:35;9.13;;;7.72;;
57281;SDS011;43129;52.628;10.098;2023-05-07T12:51:01;9.95;;;7.55;;
57281;SDS011;43129;52.628;10.098;2023-05-07T12:53:28;8.85;;;7.30;;
57281;SDS011;43129;52.628;10.098;2023-05-07T12:55:59;10.35;;;7.68;;
57281;SDS011;43129;52.628;10.098;2023-05-07T12:58:26;10.77;;;8.73;;
57281;SDS011;43129;52.628;10.098;2023-05-07T13:00:53;8.40;;;7.45;;
57281;SDS011;43129;52.628;10.098;2023-05-07T13:06:02;9.65;;;7.55;;
57281;SDS011;43129;52.628;10.098;2023-05-07T13:11:12;9.63;;;6.90;;
57281;SDS011;43129;52.628;10.098;2023-05-07T13:13:40;8.38;;;6.65;;
57281;SDS011;43129;52.628;10.098;2023-05-07T13:16:09;10.05;;;6.85;;
57281;SDS011;43129;52.628;10.098;2023-05-07T13:18:36;8.07;;;6.80;;
57281;SDS011;43129;52.628;10.098;2023-05-07T13:21:03;8.70;;;6.80;;
57281;SDS011;43129;52.628;10.098;2023-05-07T13:23:29;8.02;;;6.65;;
57281;SDS011;43129;52.628;10.098;2023-05-07T13:25:55;7.32;;;6.22;;
57281;SDS011;43129;52.628;10.098;2023-05-07T13:28:23;6.95;;;6.05;;
57281;SDS011;43129;52.628;10.098;2023-05-07T13:30:50;8.25;;;5.90;;
57281;SDS011;43129;52.628;10.098;2023-05-07T13:33:17;8.52;;;6.35;;
57281;SDS011;43129;52.628;10.098;2023-05-07T13:35:47;7.20;;;6.25;;
57281;SDS011;43129;52.628;10.098;2023-05-07T13:38:13;8.60;;;6.32;;
57281;SDS011;43129;52.628;10.098;2023-05-07T13:40:41;8.35;;;7.00;;
57281;SDS011;43129;52.628;10.098;2023-05-07T13:43:06;6.82;;;6.13;;
57281;SDS011;43129;52.628;10.098;2023-05-07T13:45:32;8.15;;;6.30;;
57281;SDS011;43129;52.628;10.098;2023-05-07T13:47:58;7.90;;;6.07;;
57281;SDS011;43129;52.628;10.098;2023-05-07T13:50:24;6.88;;;5.80;;
57281;SDS011;43129;52.628;10.098;2023-05-07T13:52:54;7.68;;;6.15;;
57281;SDS011;43129;52.628;10.098;2023-05-07T13:55:20;7.95;;;5.65;;
57281;SDS011;43129;52.628;10.098;2023-05-07T13:57:55;7.63;;;5.72;;
57281;SDS011;43129;52.628;10.098;2023-05-07T14:00:28;6.80;;;6.07;;
57281;SDS011;43129;52.628;10.098;2023-05-07T14:02:56;8.15;;;6.35;;
57281;SDS011;43129;52.628;10.098;2023-05-07T14:05:22;6.43;;;5.65;;
57281;SDS011;43129;52.628;10.098;2023-05-07T14:07:53;6.65;;;5.57;;
57281;SDS011;43129;52.628;10.098;2023-05-07T14:10:21;9.68;;;6.60;;
57281;SDS011;43129;52.628;10.098;2023-05-07T14:12:47;6.07;;;5.47;;
57281;SDS011;43129;52.628;10.098;2023-05-07T14:15:15;7.82;;;6.60;;
57281;SDS011;43129;52.628;10.098;2023-05-07T14:17:45;6.40;;;5.75;;
57281;SDS011;43129;52.628;10.098;2023-05-07T14:20:12;8.18;;;5.28;;
57281;SDS011;43129;52.628;10.098;2023-05-07T14:22:40;5.97;;;5.35;;
57281;SDS011;43129;52.628;10.098;2023-05-07T14:25:08;7.03;;;5.55;;
57281;SDS011;43129;52.628;10.098;2023-05-07T14:27:40;7.22;;;5.72;;
57281;SDS011;43129;52.628;10.098;2023-05-07T14:30:08;7.18;;;5.88;;
57281;SDS011;43129;52.628;10.098;2023-05-07T14:32:36;7.13;;;5.85;;
57281;SDS011;43129;52.628;10.098;2023-05-07T14:35:01;7.43;;;5.20;;
57281;SDS011;43129;52.628;10.098;2023-05-07T14:37:32;5.95;;;5.10;;
57281;SDS011;43129;52.628;10.098;2023-05-07T14:40:00;6.88;;;5.05;;
57281;SDS011;43129;52.628;10.098;2023-05-07T14:42:26;6.57;;;5.65;;
57281;SDS011;43129;52.628;10.098;2023-05-07T14:44:52;6.20;;;5.60;;
57281;SDS011;43129;52.628;10.098;2023-05-07T14:47:17;8.23;;;5.63;;
57281;SDS011;43129;52.628;10.098;2023-05-07T14:49:43;6.00;;;5.40;;
57281;SDS011;43129;52.628;10.098;2023-05-07T14:52:09;9.38;;;6.15;;
57281;SDS011;43129;52.628;10.098;2023-05-07T14:54:35;9.43;;;5.80;;